Time;durP1;ratioP1;P1;durP2;ratioP2;P2;SDS_P1;SDS_P2;PMS_P1;PMS_P2;Temp;Humidity;BMP_temperature;BMP_pressure;BME280_temperature;BME280_humidity;BME280_pressure;Samples;Min_cycle;Max_cycle;Signal;HPM_P1;HPM_P2
2021/01/20 00:00:24;;;;;;;14.40;5.93;;;7.50;99.90;;;;;;4990721;28;20590;-87
2021/01/20 00:02:50;;;;;;;12.50;6.40;;;7.50;99.90;;;;;;4996290;28;20178;-87
2021/01/20 00:05:16;;;;;;;9.60;5.70;;;7.50;99.90;;;;;;4995823;28;20320;-88
2021/01/20 00:07:42;;;;;;;8.73;6.23;;;7.60;99.90;;;;;;4994872;28;20208;-88
2021/01/20 00:10:08;;;;;;;16.13;5.90;;;7.60;99.90;;;;;;4992564;28;20648;-88
2021/01/20 00:12:33;;;;;;;14.20;6.33;;;7.60;99.90;;;;;;4983840;28;20186;-89
2021/01/20 00:14:59;;;;;;;8.90;5.80;;;7.60;99.90;;;;;;4995904;28;20549;-88
2021/01/20 00:17:25;;;;;;;15.27;6.70;;;7.50;99.90;;;;;;4992503;28;20245;-87
2021/01/20 00:19:50;;;;;;;7.00;5.57;;;7.50;99.90;;;;;;4982088;28;20186;-88
2021/01/20 00:22:16;;;;;;;8.77;5.60;;;7.60;99.90;;;;;;4977873;28;20185;-87
2021/01/20 00:24:41;;;;;;;8.57;6.33;;;7.60;99.90;;;;;;4995571;28;20190;-87
2021/01/20 00:27:08;;;;;;;9.23;5.97;;;7.50;99.90;;;;;;4992395;28;20234;-87
2021/01/20 00:29:37;;;;;;;8.70;5.73;;;7.60;99.90;;;;;;4981573;28;20240;-88
2021/01/20 00:32:03;;;;;;;8.90;6.43;;;7.60;99.90;;;;;;4995518;28;20205;-88
2021/01/20 00:34:29;;;;;;;15.43;5.87;;;7.60;99.90;;;;;;4995040;28;20177;-91
2021/01/20 00:36:55;;;;;;;10.90;5.97;;;7.60;99.90;;;;;;5011197;28;20192;-88
2021/01/20 00:39:20;;;;;;;13.43;7.00;;;7.70;99.90;;;;;;5011531;28;20201;-89
2021/01/20 00:41:47;;;;;;;9.77;6.17;;;7.70;99.90;;;;;;5011668;28;20280;-88
2021/01/20 00:44:13;;;;;;;9.37;6.23;;;7.60;99.90;;;;;;4992254;28;20232;-87
2021/01/20 00:46:39;;;;;;;9.20;6.23;;;7.60;99.90;;;;;;4977433;28;20318;-88
2021/01/20 00:49:05;;;;;;;12.17;7.23;;;7.60;99.90;;;;;;4980974;28;20273;-88
2021/01/20 00:51:30;;;;;;;8.97;6.03;;;7.70;99.90;;;;;;4975961;28;20225;-87
2021/01/20 00:53:56;;;;;;;11.63;5.90;;;7.70;99.90;;;;;;4975922;28;20225;-87
2021/01/20 00:56:22;;;;;;;13.00;6.47;;;7.70;99.90;;;;;;4992032;28;20262;-87
2021/01/20 00:58:47;;;;;;;9.47;6.23;;;7.70;99.90;;;;;;4984902;28;20654;-87
2021/01/20 01:01:13;;;;;;;9.47;5.43;;;7.70;99.90;;;;;;4991473;28;20197;-87
2021/01/20 01:03:39;;;;;;;7.30;5.20;;;7.70;99.90;;;;;;4992299;28;20189;-87
2021/01/20 01:06:08;;;;;;;8.90;5.17;;;7.60;99.90;;;;;;4996399;28;20193;-87
2021/01/20 01:08:33;;;;;;;7.87;5.63;;;7.60;99.90;;;;;;5011336;28;20182;-87
2021/01/20 01:11:02;;;;;;;8.07;5.20;;;7.60;99.90;;;;;;5002019;28;20266;-89
2021/01/20 01:13:28;;;;;;;6.40;5.23;;;7.60;99.90;;;;;;5025317;28;20185;-87
2021/01/20 01:15:55;;;;;;;8.83;5.67;;;7.60;99.90;;;;;;5034938;28;20170;-87
2021/01/20 01:18:20;;;;;;;7.87;5.37;;;7.60;99.90;;;;;;5017830;28;20216;-87
2021/01/20 01:20:46;;;;;;;8.00;5.57;;;7.60;99.90;;;;;;4995062;28;20221;-88
2021/01/20 01:23:12;;;;;;;7.50;5.33;;;7.50;99.90;;;;;;4991544;28;20182;-87
2021/01/20 01:25:37;;;;;;;8.33;5.23;;;7.50;99.90;;;;;;4975390;28;20186;-88
2021/01/20 01:28:14;;;;;;;7.77;5.00;;;7.50;99.90;;;;;;4977909;28;20556;-87
2021/01/20 01:30:40;;;;;;;6.50;4.80;;;7.50;99.90;;;;;;4993744;28;20217;-87
2021/01/20 01:33:08;;;;;;;10.00;5.37;;;7.50;99.90;;;;;;5015719;28;20186;-88
2021/01/20 01:35:34;;;;;;;7.57;5.33;;;7.40;99.90;;;;;;5001751;28;20205;-87
2021/01/20 01:38:00;;;;;;;9.47;6.27;;;7.50;99.90;;;;;;4993729;28;20558;-88
2021/01/20 01:40:26;;;;;;;9.50;5.73;;;7.50;99.90;;;;;;4994294;28;20235;-88
2021/01/20 01:42:52;;;;;;;10.43;6.67;;;7.40;99.90;;;;;;4994264;28;20539;-87
2021/01/20 01:45:18;;;;;;;7.80;5.60;;;7.40;99.90;;;;;;4993885;28;20181;-87
2021/01/20 01:47:44;;;;;;;11.80;6.93;;;7.40;99.90;;;;;;4993543;28;20208;-87
2021/01/20 01:50:11;;;;;;;9.67;6.13;;;7.40;99.90;;;;;;4993924;28;20189;-87
2021/01/20 01:52:38;;;;;;;8.57;6.70;;;7.40;99.90;;;;;;4993643;28;20208;-88
2021/01/20 01:55:05;;;;;;;12.10;6.70;;;7.40;99.90;;;;;;4993890;28;20650;-87
2021/01/20 01:57:31;;;;;;;12.07;6.90;;;7.40;99.90;;;;;;4993519;28;20173;-87
2021/01/20 01:59:57;;;;;;;12.17;6.37;;;7.40;99.90;;;;;;4996369;28;20296;-87
2021/01/20 02:02:22;;;;;;;12.80;6.90;;;7.50;99.90;;;;;;4994736;28;20248;-87
2021/01/20 02:04:48;;;;;;;10.37;7.00;;;7.40;99.90;;;;;;4996313;28;20178;-88
2021/01/20 02:07:14;;;;;;;11.57;6.53;;;7.40;99.90;;;;;;4996664;28;20225;-88
2021/01/20 02:09:40;;;;;;;11.33;6.33;;;7.40;99.90;;;;;;5006594;28;20209;-86
2021/01/20 02:12:40;;;;;;;16.63;6.33;;;7.40;99.90;;;;;;4995914;28;20217;-87
2021/01/20 02:15:18;;;;;;;15.67;7.27;;;7.40;99.90;;;;;;4996119;28;20273;-88
2021/01/20 02:17:57;;;;;;;13.63;6.30;;;7.40;99.90;;;;;;4992909;28;20190;-88
2021/01/20 02:21:06;;;;;;;8.33;6.13;;;7.40;99.90;;;;;;5010919;28;20239;-88
2021/01/20 02:23:33;;;;;;;7.00;5.80;;;7.40;99.90;;;;;;4982562;28;20185;-88
2021/01/20 02:26:22;;;;;;;10.17;6.00;;;7.40;99.90;;;;;;4997459;28;20185;-88
2021/01/20 02:29:02;;;;;;;8.07;6.00;;;7.40;99.90;;;;;;5011916;28;20646;-88
2021/01/20 02:31:29;;;;;;;8.10;6.13;;;7.40;99.90;;;;;;4995341;28;20204;-88
2021/01/20 02:34:00;;;;;;;8.07;5.40;;;7.40;99.90;;;;;;4996815;28;20582;-88
2021/01/20 02:36:29;;;;;;;10.23;6.17;;;7.40;99.90;;;;;;4996307;28;20201;-88
2021/01/20 02:38:56;;;;;;;8.80;6.10;;;7.40;99.90;;;;;;5011794;28;20189;-88
2021/01/20 02:41:28;;;;;;;8.27;5.80;;;7.40;99.90;;;;;;4995924;28;20252;-88
2021/01/20 02:43:54;;;;;;;7.23;5.73;;;7.40;99.90;;;;;;4992505;28;20170;-88
2021/01/20 02:46:20;;;;;;;11.70;5.60;;;7.50;99.90;;;;;;4976312;28;20213;-87
2021/01/20 02:48:50;;;;;;;5.70;4.97;;;7.50;99.90;;;;;;4976183;28;20272;-88
2021/01/20 02:51:24;;;;;;;8.10;6.30;;;7.50;99.90;;;;;;4975850;28;20213;-88
2021/01/20 02:53:52;;;;;;;8.57;5.67;;;7.50;99.90;;;;;;4992159;28;20190;-88
2021/01/20 02:56:23;;;;;;;9.10;6.33;;;7.50;99.90;;;;;;4990876;28;20654;-87
2021/01/20 02:58:52;;;;;;;11.33;5.50;;;7.50;99.90;;;;;;4975113;28;20189;-88
2021/01/20 03:01:19;;;;;;;7.03;5.87;;;7.50;99.90;;;;;;5003237;28;20293;-87
2021/01/20 03:03:47;;;;;;;7.77;5.80;;;7.60;99.90;;;;;;4978937;28;20170;-88
2021/01/20 03:06:16;;;;;;;11.63;5.83;;;7.60;99.90;;;;;;4977909;28;20210;-87
2021/01/20 03:08:42;;;;;;;8.30;5.30;;;7.60;99.90;;;;;;4983670;28;20263;-88
2021/01/20 03:11:08;;;;;;;7.77;5.30;;;7.70;99.90;;;;;;4993905;28;20296;-88
2021/01/20 03:13:40;;;;;;;8.70;5.30;;;7.80;99.90;;;;;;4993861;28;20632;-87
2021/01/20 03:16:08;;;;;;;5.23;4.53;;;7.80;99.90;;;;;;4994072;28;20210;-87
2021/01/20 03:18:37;;;;;;;6.73;4.87;;;7.80;99.90;;;;;;4993561;28;20197;-88
2021/01/20 03:21:03;;;;;;;6.20;4.67;;;7.90;99.90;;;;;;5003862;28;20268;-89
2021/01/20 03:23:28;;;;;;;10.57;3.97;;;8.00;99.90;;;;;;4996090;28;20177;-88
2021/01/20 03:25:57;;;;;;;6.77;4.60;;;8.00;99.90;;;;;;4996905;28;20188;-88
2021/01/20 03:28:25;;;;;;;9.43;4.83;;;8.00;99.90;;;;;;4996665;28;20572;-87
2021/01/20 03:30:51;;;;;;;6.87;4.20;;;8.00;99.90;;;;;;4996578;28;20216;-88
2021/01/20 03:33:17;;;;;;;5.07;4.27;;;8.10;99.90;;;;;;4996484;28;20185;-88
2021/01/20 03:35:43;;;;;;;4.83;3.67;;;8.10;99.90;;;;;;4996793;28;20177;-88
2021/01/20 03:38:09;;;;;;;4.30;3.90;;;8.20;99.90;;;;;;4996396;28;20271;-87
2021/01/20 03:40:36;;;;;;;4.60;3.77;;;8.20;99.90;;;;;;5000575;28;20197;-87
2021/01/20 03:43:01;;;;;;;4.47;3.83;;;8.20;99.90;;;;;;5018420;28;20182;-87
2021/01/20 03:45:27;;;;;;;5.33;3.20;;;8.20;99.90;;;;;;5014104;28;20266;-88
2021/01/20 03:47:53;;;;;;;5.33;3.20;;;8.20;99.90;;;;;;4980744;28;20189;-88
2021/01/20 03:50:18;;;;;;;3.70;3.30;;;8.20;99.90;;;;;;4977004;28;20635;-87
2021/01/20 03:52:44;;;;;;;7.10;3.47;;;8.20;99.90;;;;;;4976747;28;20186;-88
2021/01/20 03:55:10;;;;;;;5.43;2.83;;;8.30;99.90;;;;;;4995902;28;20193;-88
2021/01/20 03:57:36;;;;;;;6.43;2.87;;;8.30;99.90;;;;;;4996555;28;20289;-87
2021/01/20 04:00:03;;;;;;;4.10;3.70;;;8.30;99.90;;;;;;5000094;28;20174;-87
2021/01/20 04:02:29;;;;;;;3.20;2.90;;;8.30;99.90;;;;;;5011348;28;20257;-92
2021/01/20 04:04:57;;;;;;;4.87;3.17;;;8.40;99.90;;;;;;5010297;28;20190;-87
2021/01/20 04:07:26;;;;;;;4.00;3.57;;;8.40;99.90;;;;;;4992409;28;20182;-87
2021/01/20 04:09:51;;;;;;;3.83;2.83;;;8.50;99.90;;;;;;4994839;28;20189;-90
2021/01/20 04:12:17;;;;;;;6.60;2.87;;;8.50;99.90;;;;;;4995914;28;20716;-88
2021/01/20 04:14:43;;;;;;;6.17;2.97;;;8.50;99.90;;;;;;4992157;28;20193;-88
2021/01/20 04:17:08;;;;;;;4.20;2.47;;;8.50;99.90;;;;;;4989817;28;20189;-88
2021/01/20 04:19:34;;;;;;;7.87;3.03;;;8.60;99.90;;;;;;4995476;28;20174;-86
2021/01/20 04:22:00;;;;;;;6.00;2.90;;;8.60;99.90;;;;;;4995208;28;20276;-88
2021/01/20 04:24:25;;;;;;;6.33;3.37;;;8.60;99.90;;;;;;4992316;28;20186;-87
2021/01/20 04:26:51;;;;;;;4.47;3.00;;;8.70;99.90;;;;;;4976128;28;20209;-87
2021/01/20 04:29:19;;;;;;;2.90;2.57;;;8.70;99.90;;;;;;4979114;28;20186;-88
2021/01/20 04:31:47;;;;;;;5.70;2.70;;;8.70;99.90;;;;;;4976325;28;20214;-87
2021/01/20 04:34:13;;;;;;;3.83;2.83;;;8.70;99.90;;;;;;4975765;28;20190;-87
2021/01/20 04:36:38;;;;;;;5.63;2.80;;;8.70;99.90;;;;;;4975884;28;20249;-87
2021/01/20 04:39:07;;;;;;;6.07;2.63;;;8.70;99.90;;;;;;4997126;28;20558;-87
2021/01/20 04:41:35;;;;;;;3.20;2.90;;;8.70;99.90;;;;;;5011698;28;20668;-87
2021/01/20 04:44:03;;;;;;;3.53;3.23;;;8.60;99.90;;;;;;4986653;28;20214;-87
2021/01/20 04:46:31;;;;;;;5.27;3.57;;;8.50;99.90;;;;;;4991863;28;20182;-88
2021/01/20 04:49:00;;;;;;;6.17;3.50;;;8.50;99.90;;;;;;4999843;28;20534;-88
2021/01/20 04:51:28;;;;;;;9.23;3.83;;;8.50;99.90;;;;;;4995088;28;20209;-87
2021/01/20 04:53:55;;;;;;;4.23;3.40;;;8.40;99.90;;;;;;4994808;28;20586;-89
2021/01/20 04:56:23;;;;;;;4.07;2.90;;;8.40;99.90;;;;;;4995058;28;20185;-87
2021/01/20 04:58:55;;;;;;;5.40;3.63;;;8.40;99.90;;;;;;4991580;28;20194;-87
2021/01/20 05:01:21;;;;;;;4.43;2.70;;;8.40;99.90;;;;;;5000887;28;20196;-87
2021/01/20 05:03:48;;;;;;;4.97;3.53;;;8.40;99.90;;;;;;5011212;28;20442;-88
2021/01/20 05:06:15;;;;;;;3.83;2.80;;;8.30;99.90;;;;;;4994557;28;20189;-87
2021/01/20 05:08:42;;;;;;;3.77;3.17;;;8.30;99.90;;;;;;4994803;28;20189;-87
2021/01/20 05:11:08;;;;;;;5.63;2.97;;;8.30;99.90;;;;;;5010759;28;20209;-88
2021/01/20 05:13:34;;;;;;;5.80;2.93;;;8.30;99.90;;;;;;4993016;28;20181;-87
2021/01/20 05:16:04;;;;;;;4.73;2.93;;;8.20;99.90;;;;;;4991746;28;20178;-88
2021/01/20 05:18:48;;;;;;;4.33;3.33;;;8.20;99.90;;;;;;4991569;28;20209;-89
2021/01/20 05:21:20;;;;;;;3.13;2.80;;;8.10;99.90;;;;;;4991607;28;20188;-87
2021/01/20 05:23:46;;;;;;;9.80;2.83;;;8.00;99.90;;;;;;4999027;28;20205;-88
2021/01/20 05:26:11;;;;;;;8.67;3.50;;;8.00;99.90;;;;;;4994722;28;20244;-88
2021/01/20 05:28:44;;;;;;;3.97;2.87;;;7.90;99.90;;;;;;4994410;28;20280;-88
2021/01/20 05:31:28;;;;;;;7.07;3.83;;;7.90;99.90;;;;;;4991190;28;20694;-88
2021/01/20 05:34:02;;;;;;;4.00;3.43;;;7.80;99.90;;;;;;4991574;28;20268;-90
2021/01/20 05:36:27;;;;;;;5.90;3.83;;;7.80;99.90;;;;;;5007655;28;20202;-88
2021/01/20 05:38:55;;;;;;;4.07;3.33;;;7.80;99.90;;;;;;5007646;28;20289;-88
2021/01/20 05:41:22;;;;;;;6.37;3.60;;;7.80;99.90;;;;;;4975099;28;20205;-88
2021/01/20 05:43:52;;;;;;;7.67;3.20;;;7.80;99.90;;;;;;4994060;28;20185;-92
2021/01/20 05:46:34;;;;;;;3.63;3.33;;;7.80;99.90;;;;;;4975172;28;20181;-88
2021/01/20 05:49:01;;;;;;;3.80;3.40;;;7.80;99.90;;;;;;4963190;28;20190;-90
2021/01/20 05:51:37;;;;;;;5.57;3.50;;;7.70;99.90;;;;;;4973173;28;20312;-88
2021/01/20 05:54:08;;;;;;;4.90;3.47;;;7.70;99.90;;;;;;4973225;28;20190;-87
2021/01/20 05:56:35;;;;;;;3.37;3.07;;;7.70;99.90;;;;;;4957506;28;20186;-88
2021/01/20 05:59:11;;;;;;;4.17;3.73;;;7.70;99.90;;;;;;4973804;28;20215;-88
2021/01/20 06:01:38;;;;;;;7.03;3.33;;;7.80;99.90;;;;;;4954319;28;20591;-88
2021/01/20 06:04:06;;;;;;;5.10;3.23;;;7.80;99.90;;;;;;4939087;29;20183;-88
2021/01/20 06:06:35;;;;;;;5.30;3.50;;;7.80;99.90;;;;;;4948515;28;20735;-88
2021/01/20 06:09:01;;;;;;;5.13;3.80;;;7.80;99.90;;;;;;4958896;28;20201;-87
2021/01/20 06:11:26;;;;;;;4.27;2.93;;;7.80;99.90;;;;;;4983137;28;20217;-88
2021/01/20 06:13:53;;;;;;;4.50;3.50;;;7.80;99.90;;;;;;4974280;28;20646;-88
2021/01/20 06:16:39;;;;;;;3.70;3.30;;;7.80;99.90;;;;;;4997849;28;20183;-87
2021/01/20 06:19:12;;;;;;;4.17;3.13;;;7.80;99.90;;;;;;4970222;28;20197;-88
2021/01/20 06:21:40;;;;;;;3.33;3.03;;;7.80;99.90;;;;;;5011002;28;20185;-88
2021/01/20 06:24:36;;;;;;;3.93;2.80;;;7.80;99.90;;;;;;5010223;28;20188;-88
2021/01/20 06:27:13;;;;;;;11.07;3.30;;;7.80;99.90;;;;;;4995500;28;20189;-88
2021/01/20 06:29:48;;;;;;;2.93;2.50;;;7.80;99.90;;;;;;5021539;28;20182;-88
2021/01/20 06:32:27;;;;;;;3.60;3.23;;;7.80;99.90;;;;;;5014368;28;20597;-90
2021/01/20 06:34:55;;;;;;;3.47;2.80;;;7.90;99.90;;;;;;5016267;28;20641;-88
2021/01/20 06:37:38;;;;;;;7.00;3.27;;;7.90;99.90;;;;;;4997362;28;20185;-89
2021/01/20 06:40:24;;;;;;;3.50;2.73;;;7.80;99.90;;;;;;4998714;28;20217;-88
2021/01/20 06:42:51;;;;;;;3.67;3.13;;;7.80;99.90;;;;;;4981694;28;20550;-88
2021/01/20 06:45:25;;;;;;;3.67;2.90;;;7.80;99.90;;;;;;5001748;28;20185;-88
2021/01/20 06:48:02;;;;;;;4.40;2.63;;;7.80;99.90;;;;;;5000924;28;20610;-89
2021/01/20 06:50:33;;;;;;;5.30;3.07;;;7.80;99.90;;;;;;5002066;28;20188;-88
2021/01/20 06:53:09;;;;;;;4.47;2.73;;;7.80;99.90;;;;;;5000603;28;20181;-88
2021/01/20 06:55:39;;;;;;;3.87;2.60;;;7.90;99.90;;;;;;5000555;28;20185;-88
2021/01/20 06:58:31;;;;;;;3.23;2.53;;;7.90;99.90;;;;;;5000856;28;20295;-88
2021/01/20 07:01:00;;;;;;;5.53;3.00;;;7.90;99.90;;;;;;5000368;28;20185;-87
2021/01/20 07:03:39;;;;;;;2.30;2.13;;;7.90;99.90;;;;;;5000655;28;20236;-88
2021/01/20 07:06:33;;;;;;;2.83;2.60;;;8.00;99.90;;;;;;5000125;28;20232;-88
2021/01/20 07:09:14;;;;;;;2.50;2.30;;;8.10;99.90;;;;;;5001919;28;20181;-88
2021/01/20 07:12:00;;;;;;;5.80;2.70;;;8.00;99.90;;;;;;5001265;28;20205;-88
2021/01/20 07:14:32;;;;;;;2.50;2.23;;;8.00;99.90;;;;;;5002209;28;20185;-88
2021/01/20 07:16:59;;;;;;;3.10;2.10;;;8.00;99.90;;;;;;4986300;28;20177;-89
2021/01/20 07:19:28;;;;;;;3.23;2.30;;;8.10;99.90;;;;;;5023760;28;20181;-91
2021/01/20 07:21:54;;;;;;;3.70;2.30;;;8.20;99.90;;;;;;5024686;28;20189;-86
2021/01/20 07:24:21;;;;;;;2.47;2.27;;;8.30;99.90;;;;;;5023643;28;20200;-87
2021/01/20 07:26:47;;;;;;;3.78;2.20;;;8.30;99.90;;;;;;5023777;28;20205;-88
2021/01/20 07:29:17;;;;;;;3.43;2.47;;;8.30;99.90;;;;;;5016243;28;20192;-88
2021/01/20 07:31:45;;;;;;;3.70;1.90;;;8.40;99.90;;;;;;4986537;28;20228;-88
2021/01/20 07:34:11;;;;;;;2.27;1.83;;;8.30;99.90;;;;;;5001296;28;20181;-87
2021/01/20 07:36:37;;;;;;;2.97;1.77;;;8.30;99.90;;;;;;5000802;28;20184;-88
2021/01/20 07:39:03;;;;;;;2.80;2.10;;;8.40;99.90;;;;;;5000691;28;20224;-88
2021/01/20 07:41:29;;;;;;;2.00;1.80;;;8.40;99.90;;;;;;5000429;28;20217;-88
2021/01/20 07:44:08;;;;;;;2.77;2.07;;;8.40;99.90;;;;;;5017190;28;20174;-88
2021/01/20 07:46:34;;;;;;;2.27;2.07;;;8.30;99.90;;;;;;5012896;28;20177;-89
2021/01/20 07:49:10;;;;;;;3.50;2.27;;;8.40;99.90;;;;;;4998325;28;20220;-89
2021/01/20 07:51:36;;;;;;;3.20;2.20;;;8.40;99.90;;;;;;4996881;28;20201;-89
2021/01/20 07:54:04;;;;;;;5.90;2.63;;;8.40;99.90;;;;;;5013318;28;20185;-89
2021/01/20 07:56:31;;;;;;;6.27;2.23;;;8.40;99.90;;;;;;4997913;28;20264;-89
2021/01/20 07:58:57;;;;;;;2.77;2.30;;;8.40;99.90;;;;;;4997276;28;20248;-89
2021/01/20 08:01:30;;;;;;;4.13;2.40;;;8.50;99.90;;;;;;5007920;28;20543;-89
2021/01/20 08:03:57;;;;;;;4.17;2.80;;;8.70;99.90;;;;;;5012818;28;20192;-88
2021/01/20 08:06:39;;;;;;;3.25;2.05;;;8.80;99.90;;;;;;5012808;28;20182;-88
2021/01/20 08:09:05;;;;;;;3.03;2.20;;;8.90;99.90;;;;;;5011968;28;20622;-88
2021/01/20 08:11:31;;;;;;;2.95;2.38;;;8.90;99.90;;;;;;4996961;28;20433;-88
2021/01/20 08:13:59;;;;;;;2.95;2.63;;;8.90;99.90;;;;;;4995003;28;20576;-87
2021/01/20 08:16:27;;;;;;;3.40;2.50;;;9.20;99.90;;;;;;4995087;28;20424;-89
2021/01/20 08:18:56;;;;;;;2.60;2.10;;;9.20;99.90;;;;;;4997293;28;20622;-88
2021/01/20 08:21:25;;;;;;;2.72;2.40;;;9.20;99.90;;;;;;4995896;28;20190;-88
2021/01/20 08:24:00;;;;;;;4.40;2.17;;;9.20;99.90;;;;;;4981696;28;20193;-88
2021/01/20 08:26:30;;;;;;;6.85;2.45;;;9.20;99.90;;;;;;4976666;28;20518;-88
2021/01/20 08:29:13;;;;;;;9.65;2.10;;;9.20;99.90;;;;;;4981894;28;20182;-88
2021/01/20 08:31:42;;;;;;;2.88;2.20;;;9.20;99.90;;;;;;5010369;28;20220;-90
2021/01/20 08:34:23;;;;;;;1.80;1.70;;;9.10;99.90;;;;;;4995541;28;20185;-88
2021/01/20 08:37:04;;;;;;;6.07;2.00;;;9.30;99.90;;;;;;4996851;28;20173;-87
2021/01/20 08:39:35;;;;;;;2.00;1.75;;;9.30;99.90;;;;;;4996447;28;20659;-88
2021/01/20 08:42:36;;;;;;;4.55;1.63;;;9.40;99.90;;;;;;5005938;28;20186;-90
2021/01/20 08:45:11;;;;;;;3.83;2.28;;;9.50;99.90;;;;;;4990497;28;20182;-93
2021/01/20 08:48:06;;;;;;;3.88;2.03;;;9.70;99.90;;;;;;5019327;28;20166;-90
2021/01/20 08:50:33;;;;;;;2.95;2.00;;;10.00;99.90;;;;;;4996319;28;20292;-89
2021/01/20 08:53:07;;;;;;;2.90;1.92;;;9.90;99.90;;;;;;4995525;28;20619;-88
2021/01/20 08:55:37;;;;;;;4.40;1.90;;;9.90;99.90;;;;;;4995367;28;20530;-88
2021/01/20 08:58:24;;;;;;;2.88;1.85;;;9.80;99.90;;;;;;4979527;28;20189;-88
2021/01/20 09:01:27;;;;;;;4.45;2.10;;;9.80;99.90;;;;;;4990529;28;20213;-91
2021/01/20 09:03:58;;;;;;;1.60;1.50;;;9.60;99.90;;;;;;5014583;28;20261;-90
2021/01/20 09:06:24;;;;;;;1.98;1.85;;;9.40;99.90;;;;;;4982310;28;20177;-88
2021/01/20 09:08:50;;;;;;;1.83;1.70;;;9.40;99.90;;;;;;4994527;28;20188;-89
2021/01/20 09:11:16;;;;;;;3.87;2.07;;;9.50;99.90;;;;;;4975716;28;20565;-88
2021/01/20 09:13:41;;;;;;;2.67;2.10;;;9.40;99.90;;;;;;4987263;28;20192;-88
2021/01/20 09:16:07;;;;;;;4.33;1.90;;;9.20;99.90;;;;;;4994138;28;20200;-89
2021/01/20 09:18:33;;;;;;;6.53;2.20;;;9.10;99.90;;;;;;4994380;28;20189;-88
2021/01/20 09:21:00;;;;;;;6.90;1.87;;;9.00;99.90;;;;;;4994746;28;20268;-88
2021/01/20 09:23:26;;;;;;;4.60;1.57;;;9.00;99.90;;;;;;4978149;28;20181;-88
2021/01/20 09:25:53;;;;;;;1.90;1.60;;;9.00;99.90;;;;;;4978187;28;20618;-89
2021/01/20 09:28:20;;;;;;;4.50;2.07;;;9.00;99.90;;;;;;4995779;28;20245;-88
2021/01/20 09:30:46;;;;;;;3.70;1.77;;;9.10;99.90;;;;;;4995491;28;20232;-88
2021/01/20 09:33:11;;;;;;;2.13;1.77;;;9.10;99.90;;;;;;4994225;28;20181;-87
2021/01/20 09:35:37;;;;;;;2.57;2.07;;;9.10;99.90;;;;;;4995230;28;20182;-87
2021/01/20 09:38:04;;;;;;;3.60;1.93;;;9.20;99.90;;;;;;4994010;28;20197;-88
2021/01/20 09:40:30;;;;;;;2.10;1.83;;;9.20;99.90;;;;;;4994181;28;20190;-87
2021/01/20 09:42:56;;;;;;;2.33;1.80;;;9.20;99.90;;;;;;5010220;28;20216;-88
2021/01/20 09:45:27;;;;;;;3.30;1.70;;;9.30;99.90;;;;;;4994025;28;20205;-88
2021/01/20 09:47:53;;;;;;;2.40;1.57;;;9.30;99.90;;;;;;4994464;28;20191;-87
2021/01/20 09:50:18;;;;;;;2.47;1.77;;;9.20;99.90;;;;;;5010308;28;20186;-88
2021/01/20 09:52:46;;;;;;;3.40;2.43;;;9.20;99.90;;;;;;5010781;28;20236;-88
2021/01/20 09:55:12;;;;;;;2.03;1.83;;;9.20;99.90;;;;;;4995131;28;20169;-88
2021/01/20 09:57:37;;;;;;;2.07;1.80;;;9.30;99.90;;;;;;4994219;28;20177;-88
2021/01/20 10:00:08;;;;;;;2.80;2.30;;;9.40;99.90;;;;;;4994218;28;20177;-87
2021/01/20 10:02:33;;;;;;;2.77;1.83;;;9.40;99.90;;;;;;4993901;28;20177;-88
2021/01/20 10:04:59;;;;;;;3.13;1.87;;;9.60;99.90;;;;;;4995204;28;20178;-88
2021/01/20 10:07:25;;;;;;;4.47;1.90;;;9.80;99.90;;;;;;5010017;28;20189;-88
2021/01/20 10:09:51;;;;;;;2.45;2.17;;;10.10;99.90;;;;;;4993329;28;20190;-88
2021/01/20 10:12:20;;;;;;;3.20;1.90;;;10.20;99.90;;;;;;4988355;28;20202;-87
2021/01/20 10:14:46;;;;;;;5.30;1.85;;;10.50;99.90;;;;;;4975132;28;20249;-88
2021/01/20 10:17:12;;;;;;;2.17;1.98;;;11.00;99.90;;;;;;4993433;28;20212;-89
2021/01/20 10:19:39;;;;;;;2.60;1.95;;;12.00;99.90;;;;;;4990075;28;20186;-88
2021/01/20 10:22:06;;;;;;;4.18;1.67;;;12.50;99.90;;;;;;4990755;28;20233;-88
2021/01/20 10:24:32;;;;;;;3.25;1.55;;;12.00;99.90;;;;;;4974039;28;20186;-89
2021/01/20 10:26:58;;;;;;;5.53;1.88;;;11.50;99.90;;;;;;4974468;28;20193;-87
2021/01/20 10:29:26;;;;;;;2.28;1.80;;;11.10;99.90;;;;;;4984466;28;20642;-88
2021/01/20 10:31:53;;;;;;;2.95;1.60;;;10.90;99.90;;;;;;4993226;28;20197;-88
2021/01/20 10:34:18;;;;;;;2.70;2.17;;;10.80;99.90;;;;;;4993662;28;20197;-88
2021/01/20 10:36:44;;;;;;;5.15;2.00;;;11.10;99.90;;;;;;4990052;28;20260;-88
2021/01/20 10:39:12;;;;;;;2.10;1.55;;;11.90;99.90;;;;;;4989895;28;20194;-88
2021/01/20 10:41:38;;;;;;;4.78;1.63;;;12.90;99.90;;;;;;4996856;28;20177;-89
2021/01/20 10:44:13;;;;;;;1.45;1.27;;;12.50;99.90;;;;;;4993912;28;20185;-87
2021/01/20 10:46:38;;;;;;;4.07;1.58;;;12.10;99.90;;;;;;4994607;28;20247;-89
2021/01/20 10:49:04;;;;;;;2.05;1.83;;;11.80;99.90;;;;;;4994793;28;20213;-89
2021/01/20 10:51:38;;;;;;;3.20;1.73;;;11.80;99.90;;;;;;4993267;28;20209;-88
2021/01/20 10:54:04;;;;;;;1.98;1.73;;;11.70;99.90;;;;;;4993542;28;20185;-87
2021/01/20 10:56:31;;;;;;;4.80;2.00;;;11.60;99.90;;;;;;4993381;28;20177;-88
2021/01/20 10:58:56;;;;;;;5.55;2.05;;;11.40;99.90;;;;;;4993428;28;20224;-88
2021/01/20 11:01:22;;;;;;;5.55;1.90;;;11.20;99.90;;;;;;4993559;28;20189;-88
2021/01/20 11:03:48;;;;;;;2.83;2.17;;;11.10;99.90;;;;;;4993175;28;20185;-87
2021/01/20 11:06:14;;;;;;;4.65;1.90;;;11.20;99.90;;;;;;4992922;28;20185;-88
2021/01/20 11:08:40;;;;;;;1.90;1.63;;;11.20;99.90;;;;;;4993549;28;20182;-87
2021/01/20 11:11:06;;;;;;;1.80;1.70;;;11.30;99.90;;;;;;4997585;28;20267;-88
2021/01/20 11:13:33;;;;;;;1.88;1.60;;;11.40;99.90;;;;;;5007180;28;20182;-88
2021/01/20 11:15:58;;;;;;;1.80;1.45;;;11.40;99.90;;;;;;5014607;28;20212;-87
2021/01/20 11:18:25;;;;;;;2.38;1.92;;;11.20;99.90;;;;;;4996528;28;20577;-87
2021/01/20 11:20:50;;;;;;;3.90;1.95;;;11.10;99.90;;;;;;4994895;28;20212;-89
2021/01/20 11:23:19;;;;;;;4.10;2.10;;;11.10;99.90;;;;;;4998237;28;20208;-88
2021/01/20 11:25:52;;;;;;;3.03;1.90;;;11.10;99.90;;;;;;4996887;28;20193;-87
2021/01/20 11:28:18;;;;;;;2.72;2.20;;;11.00;99.90;;;;;;4997149;28;20174;-88
2021/01/20 11:30:44;;;;;;;2.88;1.75;;;10.90;99.90;;;;;;5008561;28;20174;-88
2021/01/20 11:33:10;;;;;;;3.50;2.08;;;10.80;99.90;;;;;;5013352;28;20174;-91
2021/01/20 11:35:37;;;;;;;3.20;1.80;;;10.80;99.90;;;;;;5012378;28;20203;-88
2021/01/20 11:38:03;;;;;;;3.15;1.90;;;10.80;99.90;;;;;;4997052;28;20208;-90
2021/01/20 11:40:31;;;;;;;1.95;1.67;;;10.60;99.90;;;;;;4996419;28;20245;-88
2021/01/20 11:42:57;;;;;;;4.90;1.83;;;10.50;99.90;;;;;;4977907;28;20185;-87
2021/01/20 11:45:49;;;;;;;2.20;1.83;;;10.50;99.90;;;;;;4994466;28;20272;-90
2021/01/20 11:48:14;;;;;;;3.53;2.00;;;10.40;99.90;;;;;;4973913;28;20193;-88
2021/01/20 11:50:40;;;;;;;3.53;2.03;;;10.30;99.90;;;;;;4976841;28;20189;-89
2021/01/20 11:53:06;;;;;;;4.55;1.90;;;10.30;99.90;;;;;;4976835;28;20190;-87
2021/01/20 11:55:31;;;;;;;5.63;2.22;;;10.40;99.90;;;;;;4978191;28;20233;-88
2021/01/20 11:57:57;;;;;;;2.67;1.90;;;10.50;99.90;;;;;;4993001;28;20228;-89
2021/01/20 12:00:23;;;;;;;2.45;1.80;;;10.50;99.90;;;;;;4976715;28;20202;-88
2021/01/20 12:02:49;;;;;;;6.18;1.90;;;10.50;99.90;;;;;;4993002;28;20178;-88
2021/01/20 12:05:16;;;;;;;2.20;1.70;;;10.60;99.90;;;;;;4977787;28;20182;-88
2021/01/20 12:07:43;;;;;;;4.43;2.00;;;10.70;99.90;;;;;;4976735;28;20209;-87
2021/01/20 12:10:11;;;;;;;2.40;1.73;;;11.00;99.90;;;;;;4976546;28;20186;-88
2021/01/20 12:12:37;;;;;;;8.00;2.42;;;11.60;99.90;;;;;;4976711;28;20218;-88
2021/01/20 12:15:03;;;;;;;2.63;1.90;;;11.80;99.90;;;;;;4995495;28;20182;-88
2021/01/20 12:17:30;;;;;;;2.53;1.95;;;11.70;99.90;;;;;;4995548;28;20177;-87
2021/01/20 12:19:56;;;;;;;5.57;2.28;;;11.50;99.90;;;;;;4995897;28;20220;-88
2021/01/20 12:22:21;;;;;;;2.20;2.00;;;11.40;99.90;;;;;;4995945;28;20275;-88
2021/01/20 12:24:47;;;;;;;1.88;1.60;;;11.10;99.90;;;;;;5011849;28;20257;-88
2021/01/20 12:27:12;;;;;;;3.22;1.95;;;11.30;99.90;;;;;;5012141;28;20188;-88
2021/01/20 12:29:38;;;;;;;2.17;1.98;;;11.70;99.90;;;;;;4995684;28;20208;-88
2021/01/20 12:32:05;;;;;;;3.97;1.65;;;13.00;99.90;;;;;;4995508;28;20205;-88
2021/01/20 12:34:30;;;;;;;2.45;1.90;;;14.10;99.90;;;;;;4996811;28;20268;-89
2021/01/20 12:36:56;;;;;;;3.20;2.20;;;13.70;99.90;;;;;;4996000;28;20216;-89
2021/01/20 12:39:22;;;;;;;3.65;2.00;;;13.20;99.90;;;;;;4995595;28;20284;-88
2021/01/20 12:41:47;;;;;;;2.17;1.58;;;12.60;99.90;;;;;;4995576;28;20207;-88
2021/01/20 12:44:13;;;;;;;4.43;1.95;;;12.30;99.90;;;;;;4995189;28;20669;-88
2021/01/20 12:46:39;;;;;;;4.00;1.88;;;12.10;99.90;;;;;;4984144;28;20178;-88
2021/01/20 12:49:06;;;;;;;2.65;1.58;;;12.00;99.90;;;;;;4987946;28;20246;-88
2021/01/20 12:51:32;;;;;;;6.07;1.90;;;12.00;99.90;;;;;;4995161;28;20212;-88
2021/01/20 12:53:59;;;;;;;5.38;2.00;;;11.80;99.90;;;;;;4995060;28;20197;-88
2021/01/20 12:56:24;;;;;;;2.78;1.83;;;11.70;99.90;;;;;;4994703;28;20178;-88
2021/01/20 12:58:50;;;;;;;3.10;2.00;;;11.80;99.90;;;;;;4995237;28;20340;-88
2021/01/20 13:01:15;;;;;;;2.05;1.75;;;11.70;99.90;;;;;;5011498;28;20189;-87